createdAt,value
2022-10-17T00:00:11.947Z,1144
2022-10-17T00:01:11.952Z,1160
2022-10-17T00:02:11.914Z,1168
2022-10-17T00:03:11.916Z,1137
2022-10-17T00:04:11.928Z,1162
2022-10-17T00:05:11.923Z,1136
2022-10-17T00:06:11.909Z,1144
2022-10-17T00:07:11.904Z,1135
2022-10-17T00:08:11.909Z,1123
2022-10-17T00:09:11.921Z,1127
2022-10-17T00:10:11.911Z,1130
2022-10-17T00:11:11.905Z,1145
2022-10-17T00:12:11.907Z,1127
2022-10-17T00:13:11.920Z,1145
2022-10-17T00:14:11.918Z,1117
2022-10-17T00:15:11.904Z,1129
2022-10-17T00:16:11.956Z,1114
2022-10-17T00:17:11.901Z,1120
2022-10-17T00:18:11.914Z,1103
2022-10-17T00:19:11.910Z,1117
2022-10-17T00:20:11.891Z,1108
2022-10-17T00:21:11.898Z,1108
2022-10-17T00:22:11.890Z,1093
2022-10-17T00:23:11.894Z,1088
2022-10-17T00:24:11.905Z,1088
2022-10-17T00:25:11.889Z,1081
2022-10-17T00:26:11.886Z,1083
2022-10-17T00:27:11.893Z,1090
2022-10-17T00:28:11.880Z,1080
2022-10-17T00:29:11.896Z,1081
2022-10-17T00:30:11.885Z,1070
2022-10-17T00:31:11.886Z,1075
2022-10-17T00:32:11.903Z,1073
2022-10-17T00:33:11.897Z,1069
2022-10-17T00:34:11.884Z,1052
2022-10-17T00:35:11.874Z,1058
2022-10-17T00:36:11.887Z,1059
2022-10-17T00:37:11.878Z,1034
2022-10-17T00:38:11.876Z,1040
2022-10-17T00:39:11.864Z,1060
2022-10-17T00:40:11.875Z,1047
2022-10-17T00:41:11.903Z,1031
2022-10-17T00:42:11.873Z,1031
2022-10-17T00:43:11.867Z,1044
2022-10-17T00:44:11.890Z,1042
2022-10-17T00:45:11.867Z,1024
2022-10-17T00:46:11.869Z,1042
2022-10-17T00:47:11.871Z,1038
2022-10-17T00:48:11.896Z,1024
2022-10-17T00:49:11.880Z,1047
2022-10-17T00:50:11.860Z,1027
2022-10-17T00:51:11.863Z,1031
2022-10-17T00:52:11.860Z,1019
2022-10-17T00:53:11.853Z,1016
2022-10-17T00:54:11.869Z,1014
2022-10-17T00:55:11.855Z,1025
2022-10-17T00:56:11.853Z,1026
2022-10-17T00:57:11.850Z,1012
2022-10-17T00:58:11.848Z,993
2022-10-17T00:59:11.876Z,1011
2022-10-17T01:00:11.862Z,1021
2022-10-17T01:01:11.934Z,999
2022-10-17T01:02:11.843Z,994
2022-10-17T01:03:11.866Z,998
2022-10-17T01:04:11.867Z,1008
2022-10-17T01:05:11.844Z,998
2022-10-17T01:06:11.842Z,977
2022-10-17T01:07:11.842Z,999
2022-10-17T01:08:11.847Z,976
2022-10-17T01:09:11.833Z,988
2022-10-17T01:10:11.932Z,1001
2022-10-17T01:11:11.831Z,983
2022-10-17T01:12:11.833Z,998
2022-10-17T01:13:11.830Z,977
2022-10-17T01:14:11.833Z,984
2022-10-17T01:15:11.837Z,979
2022-10-17T01:16:11.857Z,971
2022-10-17T01:17:11.829Z,970
2022-10-17T01:18:11.824Z,960
2022-10-17T01:19:11.853Z,957
2022-10-17T01:20:11.860Z,956
2022-10-17T01:21:11.828Z,987
2022-10-17T01:22:11.823Z,948
2022-10-17T01:23:11.829Z,956
2022-10-17T01:24:11.817Z,952
2022-10-17T01:25:11.830Z,963
2022-10-17T01:26:11.815Z,956
2022-10-17T01:27:11.817Z,958
2022-10-17T01:28:11.831Z,952
2022-10-17T01:29:11.812Z,935
2022-10-17T01:30:11.821Z,947
2022-10-17T01:31:11.821Z,952
2022-10-17T01:32:11.816Z,929
2022-10-17T01:33:11.841Z,906
2022-10-17T01:34:11.806Z,928
2022-10-17T01:35:11.810Z,939
2022-10-17T01:36:11.833Z,936
2022-10-17T01:37:11.807Z,932
2022-10-17T01:38:11.808Z,921
2022-10-17T01:39:11.816Z,907
2022-10-17T01:40:11.802Z,914
2022-10-17T01:41:11.793Z,916
2022-10-17T01:42:11.803Z,908
2022-10-17T01:43:11.804Z,938
2022-10-17T01:44:11.806Z,902
2022-10-17T01:45:11.798Z,905
2022-10-17T01:46:11.795Z,896
2022-10-17T01:47:11.795Z,918
2022-10-17T01:48:11.808Z,908
2022-10-17T01:49:11.810Z,913
2022-10-17T01:50:11.792Z,909
2022-10-17T01:51:11.786Z,893
2022-10-17T01:52:11.814Z,890
2022-10-17T01:53:11.789Z,898
2022-10-17T01:54:11.805Z,892
2022-10-17T01:55:11.795Z,892
2022-10-17T01:56:11.780Z,889
2022-10-17T01:57:11.782Z,883
2022-10-17T01:58:11.783Z,892
2022-10-17T01:59:11.795Z,875
2022-10-17T02:00:11.795Z,870
2022-10-17T02:01:11.825Z,880
2022-10-17T02:02:11.791Z,895
2022-10-17T02:03:11.777Z,887
2022-10-17T02:04:11.788Z,875
2022-10-17T02:05:11.783Z,878
2022-10-17T02:06:11.787Z,860
2022-10-17T02:07:11.766Z,880
2022-10-17T02:08:11.792Z,872
2022-10-17T02:09:11.769Z,864
2022-10-17T02:10:11.810Z,854
2022-10-17T02:11:11.776Z,858
2022-10-17T02:12:11.767Z,858
2022-10-17T02:13:11.765Z,855
2022-10-17T02:15:11.755Z,858
2022-10-17T02:16:11.806Z,859
2022-10-17T02:17:11.758Z,855
2022-10-17T02:18:11.772Z,846
2022-10-17T02:19:11.755Z,850
2022-10-17T02:20:11.759Z,849
2022-10-17T02:21:11.753Z,849
2022-10-17T02:22:11.757Z,847
2022-10-17T02:23:11.864Z,854
2022-10-17T02:24:11.776Z,857
2022-10-17T02:25:11.770Z,849
2022-10-17T02:26:11.749Z,850
2022-10-17T02:27:11.749Z,841
2022-10-17T02:28:11.746Z,842
2022-10-17T02:29:11.752Z,845
2022-10-17T02:30:11.773Z,838
2022-10-17T02:31:11.738Z,840
2022-10-17T02:32:11.879Z,844
2022-10-17T02:33:11.742Z,841
2022-10-17T02:34:11.745Z,837
2022-10-17T02:35:11.746Z,842
2022-10-17T02:36:11.749Z,842
2022-10-17T02:37:11.734Z,840
2022-10-17T02:38:11.736Z,834
2022-10-17T02:39:11.733Z,838
2022-10-17T02:40:11.761Z,830
2022-10-17T02:41:11.748Z,835
2022-10-17T02:42:11.722Z,830
2022-10-17T02:43:11.735Z,831
2022-10-17T02:44:11.727Z,829
2022-10-17T02:45:11.727Z,833
2022-10-17T02:46:11.750Z,837
2022-10-17T02:47:11.719Z,829
2022-10-17T02:48:11.725Z,830
2022-10-17T02:49:11.725Z,828
2022-10-17T02:50:11.716Z,830
2022-10-17T02:51:11.730Z,825
2022-10-17T02:52:11.720Z,826
2022-10-17T02:53:11.734Z,829
2022-10-17T02:54:11.726Z,824
2022-10-17T02:55:11.719Z,828
2022-10-17T02:56:11.738Z,830
2022-10-17T02:57:11.728Z,824
2022-10-17T02:58:11.714Z,817
2022-10-17T02:59:11.727Z,817
2022-10-17T03:00:11.711Z,821
2022-10-17T03:01:11.738Z,820
2022-10-17T03:02:11.704Z,811
2022-10-17T03:03:11.713Z,812
2022-10-17T03:04:11.702Z,818
2022-10-17T03:05:11.716Z,808
2022-10-17T03:06:11.701Z,818
2022-10-17T03:07:11.715Z,813
2022-10-17T03:08:11.701Z,815
2022-10-17T03:09:11.714Z,813
2022-10-17T03:10:11.710Z,808
2022-10-17T03:11:11.696Z,804
2022-10-17T03:12:11.719Z,807
2022-10-17T03:13:11.696Z,814
2022-10-17T03:14:11.691Z,806
2022-10-17T03:15:11.708Z,806
2022-10-17T03:16:11.722Z,802
2022-10-17T03:17:11.688Z,803
2022-10-17T03:18:11.686Z,806
2022-10-17T03:19:11.686Z,816
2022-10-17T03:20:11.703Z,807
2022-10-17T03:21:11.682Z,806
2022-10-17T03:22:11.693Z,803
2022-10-17T03:23:11.684Z,796
2022-10-17T03:24:11.681Z,804
2022-10-17T03:25:11.701Z,801
2022-10-17T03:26:11.684Z,803
2022-10-17T03:27:11.684Z,806
2022-10-17T03:28:11.697Z,805
2022-10-17T03:29:11.735Z,795
2022-10-17T03:30:11.676Z,795
2022-10-17T03:31:11.681Z,795
2022-10-17T03:32:11.678Z,786
2022-10-17T03:33:11.673Z,794
2022-10-17T03:34:11.668Z,792
2022-10-17T03:35:14.846Z,787
2022-10-17T03:36:11.670Z,792
2022-10-17T03:37:11.679Z,796
2022-10-17T03:38:11.681Z,790
2022-10-17T03:39:11.665Z,802
2022-10-17T03:40:11.671Z,796
2022-10-17T03:41:11.666Z,791
2022-10-17T03:42:11.659Z,782
2022-10-17T03:43:11.671Z,807
2022-10-17T03:44:11.674Z,802
2022-10-17T03:45:11.658Z,795
2022-10-17T03:46:11.686Z,813
2022-10-17T03:47:14.082Z,804
2022-10-17T03:48:11.686Z,788
2022-10-17T03:49:11.651Z,795
2022-10-17T03:50:11.653Z,807
2022-10-17T03:51:11.659Z,821
2022-10-17T03:52:11.652Z,818
2022-10-17T03:53:11.651Z,804
2022-10-17T03:54:11.674Z,774
2022-10-17T03:55:11.645Z,783
2022-10-17T03:56:11.646Z,774
2022-10-17T03:57:11.647Z,785
2022-10-17T03:58:11.646Z,774
2022-10-17T03:59:11.655Z,789
2022-10-17T04:00:11.666Z,795
2022-10-17T04:01:11.699Z,785
2022-10-17T04:02:11.634Z,792
2022-10-17T04:03:16.354Z,795
2022-10-17T04:04:11.651Z,796
2022-10-17T04:05:12.623Z,793
2022-10-17T04:06:11.637Z,801
2022-10-17T04:07:11.639Z,809
2022-10-17T04:08:11.626Z,795
2022-10-17T04:09:11.653Z,783
2022-10-17T04:10:11.638Z,789
2022-10-17T04:11:11.626Z,775
2022-10-17T04:12:11.631Z,784
2022-10-17T04:13:11.642Z,790
2022-10-17T04:14:11.624Z,784
2022-10-17T04:15:11.622Z,789
2022-10-17T04:16:11.677Z,787
2022-10-17T04:17:11.632Z,785
2022-10-17T04:18:11.618Z,777
2022-10-17T04:19:11.630Z,783
2022-10-17T04:20:11.649Z,798
2022-10-17T04:21:11.608Z,793
2022-10-17T04:22:11.613Z,1976
2022-10-17T04:23:11.610Z,1543
2022-10-17T04:24:11.616Z,1406
2022-10-17T04:25:11.619Z,1392
2022-10-17T04:26:11.606Z,1298
2022-10-17T04:27:11.611Z,987
2022-10-17T04:28:11.604Z,1039
2022-10-17T04:29:11.616Z,1010
2022-10-17T04:30:11.614Z,1064
2022-10-17T04:31:11.603Z,1106
2022-10-17T04:32:11.638Z,1076
2022-10-17T04:33:11.605Z,1060
2022-10-17T04:34:11.614Z,961
2022-10-17T04:35:11.596Z,998
2022-10-17T04:36:11.598Z,1130
2022-10-17T04:37:11.595Z,1152
2022-10-17T04:38:11.595Z,1104
2022-10-17T04:39:11.613Z,1086
2022-10-17T04:40:11.596Z,1066
2022-10-17T04:41:11.595Z,1051
2022-10-17T04:42:11.594Z,1009
2022-10-17T04:43:11.585Z,1025
2022-10-17T04:44:11.603Z,1033
2022-10-17T04:45:11.590Z,1086
2022-10-17T04:46:11.604Z,996
2022-10-17T04:47:11.591Z,1006
2022-10-17T04:48:11.606Z,1029
2022-10-17T04:49:11.578Z,1056
2022-10-17T04:50:11.595Z,1022
2022-10-17T04:51:11.591Z,1025
2022-10-17T04:52:11.596Z,1041
2022-10-17T04:53:11.576Z,1073
2022-10-17T04:54:11.580Z,1041
2022-10-17T04:55:11.574Z,979
2022-10-17T04:56:11.574Z,959
2022-10-17T04:57:11.582Z,989
2022-10-17T04:58:11.575Z,1006
2022-10-17T04:59:11.572Z,1056
2022-10-17T05:00:11.635Z,1063
2022-10-17T05:01:11.699Z,1055
2022-10-17T05:02:11.575Z,1091
2022-10-17T05:03:11.561Z,1072
2022-10-17T05:04:11.605Z,1085
2022-10-17T05:05:11.563Z,1050
2022-10-17T05:06:11.575Z,1073
2022-10-17T05:07:11.564Z,1114
2022-10-17T05:08:11.564Z,1119
2022-10-17T05:09:11.563Z,1080
2022-10-17T05:10:11.558Z,1082
2022-10-17T05:11:11.571Z,1096
2022-10-17T05:12:11.574Z,1089
2022-10-17T05:13:11.568Z,1095
2022-10-17T05:14:11.564Z,1137
2022-10-17T05:15:11.553Z,1051
2022-10-17T05:16:11.590Z,1069
2022-10-17T05:17:11.581Z,1108
2022-10-17T05:18:11.551Z,1097
2022-10-17T05:19:11.550Z,1116
2022-10-17T05:20:11.569Z,1099
2022-10-17T05:21:11.542Z,1121
2022-10-17T05:22:11.561Z,1137
2022-10-17T05:23:11.562Z,1130
2022-10-17T05:24:12.737Z,1127
2022-10-17T05:25:11.563Z,1124
2022-10-17T05:26:11.539Z,1122
2022-10-17T05:27:11.538Z,1147
2022-10-17T05:28:11.537Z,1102
2022-10-17T05:29:11.552Z,1081
2022-10-17T05:30:11.537Z,1056
2022-10-17T05:31:11.553Z,1083
2022-10-17T05:32:11.532Z,1117
2022-10-17T05:33:11.531Z,1141
2022-10-17T05:34:13.843Z,1076
2022-10-17T05:35:11.531Z,1068
2022-10-17T05:36:11.572Z,1079
2022-10-17T05:37:11.523Z,996
2022-10-17T05:38:11.542Z,1053
2022-10-17T05:39:11.522Z,1057
2022-10-17T05:40:11.544Z,1058
2022-10-17T05:41:11.520Z,1020
2022-10-17T05:42:11.531Z,1040
2022-10-17T05:43:11.515Z,1059
2022-10-17T05:44:11.526Z,1074
2022-10-17T05:45:11.543Z,1027
2022-10-17T05:46:11.691Z,1027
2022-10-17T05:47:11.524Z,1046
2022-10-17T05:48:11.511Z,1035
2022-10-17T05:49:25.209Z,1026
2022-10-17T05:50:11.517Z,1066
2022-10-17T05:51:11.521Z,1050
2022-10-17T05:52:11.552Z,1048
2022-10-17T05:53:11.528Z,1093
2022-10-17T05:54:11.510Z,1080
2022-10-17T05:55:11.547Z,1061
2022-10-17T05:56:11.501Z,1049
2022-10-17T05:57:11.504Z,1057
2022-10-17T05:58:17.768Z,1092
2022-10-17T05:59:11.508Z,1120
2022-10-17T06:00:11.514Z,1165
2022-10-17T06:01:12.864Z,1104
2022-10-17T06:02:11.597Z,1194
2022-10-17T06:03:11.512Z,1115
2022-10-17T06:04:11.567Z,1051
2022-10-17T06:05:11.527Z,1061
2022-10-17T06:06:11.496Z,1070
2022-10-17T06:07:11.495Z,1049
2022-10-17T06:08:11.526Z,1089
2022-10-17T06:09:11.526Z,1084
2022-10-17T06:10:11.547Z,1101
2022-10-17T06:11:11.484Z,1064
2022-10-17T06:12:11.553Z,1112
2022-10-17T06:13:11.481Z,1098
2022-10-17T06:14:11.487Z,1138
2022-10-17T06:15:11.488Z,1185
2022-10-17T06:16:11.512Z,1176
2022-10-17T06:17:15.737Z,1097
2022-10-17T06:18:11.492Z,1121
2022-10-17T06:19:11.486Z,1119
2022-10-17T06:20:11.479Z,1116
2022-10-17T06:21:11.488Z,1163
2022-10-17T06:22:11.467Z,1143
2022-10-17T06:23:11.492Z,1161
2022-10-17T06:24:11.502Z,1150
2022-10-17T06:25:11.470Z,1156
2022-10-17T06:26:11.469Z,1125
2022-10-17T06:27:12.286Z,1173
2022-10-17T06:28:11.494Z,1085
2022-10-17T06:29:11.585Z,1135
2022-10-17T06:30:11.486Z,1180
2022-10-17T06:31:11.497Z,1132
2022-10-17T06:32:14.954Z,1178
2022-10-17T06:33:11.500Z,1115
2022-10-17T06:34:11.464Z,1163
2022-10-17T06:35:11.456Z,1147
2022-10-17T06:36:11.463Z,1258
2022-10-17T06:37:11.462Z,1253
2022-10-17T06:38:11.483Z,1197
2022-10-17T06:39:11.460Z,1012
2022-10-17T06:40:11.479Z,1074
2022-10-17T06:41:11.467Z,1186
2022-10-17T06:42:11.453Z,1182
2022-10-17T06:43:11.451Z,1072
2022-10-17T06:44:11.499Z,1088
2022-10-17T06:45:11.478Z,1188
2022-10-17T06:46:11.451Z,1200
2022-10-17T06:47:13.440Z,1161
2022-10-17T06:48:11.451Z,1152
2022-10-17T06:49:11.439Z,1088
2022-10-17T06:50:11.453Z,1146
2022-10-17T06:51:11.447Z,1157
2022-10-17T06:52:11.445Z,1092
2022-10-17T06:53:11.443Z,1154
2022-10-17T06:54:11.461Z,1148
2022-10-17T06:55:11.453Z,1219
2022-10-17T06:56:11.464Z,1221
2022-10-17T06:57:11.430Z,1103
2022-10-17T06:58:11.437Z,1091
2022-10-17T06:59:11.433Z,1064
2022-10-17T07:00:11.468Z,1121
2022-10-17T07:01:11.690Z,1156
2022-10-17T07:02:11.430Z,1128
2022-10-17T07:03:11.427Z,1124
2022-10-17T07:04:11.472Z,1108
2022-10-17T07:05:11.431Z,1120
2022-10-17T07:06:11.426Z,1115
2022-10-17T07:07:11.447Z,1146
2022-10-17T07:08:11.433Z,1341
2022-10-17T07:09:11.420Z,1246
2022-10-17T07:10:11.437Z,1187
2022-10-17T07:11:11.413Z,1143
2022-10-17T07:12:11.646Z,1148
2022-10-17T07:13:11.474Z,1223
2022-10-17T07:14:11.433Z,1219
2022-10-17T07:15:11.418Z,1233
2022-10-17T07:16:11.472Z,1209
2022-10-17T07:17:11.420Z,1184
2022-10-17T07:18:11.453Z,1177
2022-10-17T07:19:11.410Z,1132
2022-10-17T07:20:11.467Z,1114
2022-10-17T07:21:11.407Z,1205
2022-10-17T07:22:11.399Z,1170
2022-10-17T07:23:11.484Z,1137
2022-10-17T07:24:11.420Z,1172
2022-10-17T07:25:12.567Z,1140
2022-10-17T07:26:11.410Z,1121
2022-10-17T07:27:11.401Z,1118
2022-10-17T07:28:11.438Z,1092
2022-10-17T07:29:11.403Z,1117
2022-10-17T07:30:11.394Z,1136
2022-10-17T07:31:11.411Z,1150
2022-10-17T07:32:11.392Z,1144
2022-10-17T07:33:11.411Z,1117
2022-10-17T07:34:11.395Z,1123
2022-10-17T07:35:11.398Z,1106
2022-10-17T07:36:11.393Z,1127
2022-10-17T07:37:11.382Z,1197
2022-10-17T07:38:11.384Z,1170
2022-10-17T07:39:11.390Z,1167
2022-10-17T07:40:11.401Z,1111
2022-10-17T07:41:11.386Z,1171
2022-10-17T07:42:11.383Z,1169
2022-10-17T07:43:11.403Z,1192
2022-10-17T07:44:11.405Z,1160
2022-10-17T07:45:11.394Z,1263
2022-10-17T07:46:11.380Z,1236
2022-10-17T07:47:11.392Z,1239
2022-10-17T07:48:11.382Z,1175
2022-10-17T07:49:11.373Z,1235
2022-10-17T07:50:11.382Z,1280
2022-10-17T07:51:11.396Z,1242
2022-10-17T07:52:11.372Z,1277
2022-10-17T07:53:11.396Z,1262
2022-10-17T07:54:11.370Z,1268
2022-10-17T07:55:11.366Z,1224
2022-10-17T07:56:11.387Z,1443
2022-10-17T07:57:11.367Z,1223
2022-10-17T07:58:11.379Z,1240
2022-10-17T07:59:11.361Z,1265
2022-10-17T08:00:11.389Z,1276
2022-10-17T08:01:14.882Z,1276
2022-10-17T08:02:11.379Z,1267
2022-10-17T08:03:11.367Z,1257
2022-10-17T08:04:11.356Z,1213
2022-10-17T08:05:11.648Z,1228
2022-10-17T08:06:11.361Z,1306
2022-10-17T08:07:20.610Z,1265
2022-10-17T08:08:11.379Z,1315
2022-10-17T08:09:11.355Z,1299
2022-10-17T08:10:11.369Z,1181
2022-10-17T08:11:11.348Z,1186
2022-10-17T08:12:11.344Z,1262
2022-10-17T08:13:11.360Z,1284
2022-10-17T08:14:11.349Z,1262
2022-10-17T08:15:11.342Z,1282
2022-10-17T08:16:11.393Z,1294
2022-10-17T08:17:11.350Z,1236
2022-10-17T08:18:11.372Z,1188
2022-10-17T08:19:11.347Z,1300
2022-10-17T08:20:11.340Z,1224
2022-10-17T08:21:11.334Z,1316
2022-10-17T08:22:11.358Z,1325
2022-10-17T08:23:11.334Z,1308
2022-10-17T08:24:11.333Z,1312
2022-10-17T08:25:11.345Z,1240
2022-10-17T08:26:11.343Z,1214
2022-10-17T08:27:11.649Z,1283
2022-10-17T08:28:11.333Z,1237
2022-10-17T08:29:11.441Z,1218
2022-10-17T08:30:11.332Z,1232
2022-10-17T08:31:11.323Z,1240
2022-10-17T08:32:11.354Z,1210
2022-10-17T08:33:11.329Z,1434
2022-10-17T08:34:11.330Z,1241
2022-10-17T08:35:11.328Z,1236
2022-10-17T08:36:11.321Z,1245
2022-10-17T08:38:13.338Z,1270
2022-10-17T08:39:11.354Z,1247
2022-10-17T08:40:11.316Z,1247
2022-10-17T08:41:11.313Z,1266
2022-10-17T08:42:11.307Z,1279
2022-10-17T08:43:11.305Z,1220
2022-10-17T08:44:11.340Z,1262
2022-10-17T08:45:11.312Z,1248
2022-10-17T08:46:11.380Z,1221
2022-10-17T08:47:11.302Z,1230
2022-10-17T08:48:11.339Z,1201
2022-10-17T08:49:12.163Z,1194
2022-10-17T08:50:11.314Z,1198
2022-10-17T08:51:11.310Z,1218
2022-10-17T08:52:11.302Z,1228
2022-10-17T08:53:11.307Z,1279
2022-10-17T08:54:11.319Z,1279
2022-10-17T08:55:11.362Z,1258
2022-10-17T08:56:19.517Z,1246
2022-10-17T08:57:11.326Z,1205
2022-10-17T08:58:11.302Z,1179
2022-10-17T08:59:11.290Z,1208
2022-10-17T09:00:11.285Z,1178
2022-10-17T09:01:13.257Z,1195
2022-10-17T09:02:11.294Z,1219
2022-10-17T09:03:11.335Z,1199
2022-10-17T09:04:11.364Z,1220
2022-10-17T09:05:11.286Z,1198
2022-10-17T09:06:11.288Z,1171
2022-10-17T09:07:11.293Z,1192
2022-10-17T09:08:11.286Z,1223
2022-10-17T09:09:11.291Z,1247
2022-10-17T09:10:11.295Z,1236
2022-10-17T09:11:11.280Z,1200
2022-10-17T09:12:11.271Z,1187
2022-10-17T09:13:11.267Z,1159
2022-10-17T09:14:11.287Z,1147
2022-10-17T09:15:11.270Z,1149
2022-10-17T09:16:11.298Z,1156
2022-10-17T09:17:11.270Z,1124
2022-10-17T09:18:11.301Z,1145
2022-10-17T09:19:11.272Z,1167
2022-10-17T09:20:11.320Z,1150
2022-10-17T09:21:11.265Z,1139
2022-10-17T09:22:11.263Z,1115
2022-10-17T09:23:11.292Z,1138
2022-10-17T09:24:15.809Z,1131
2022-10-17T09:25:11.262Z,1112
2022-10-17T09:26:11.258Z,1123
2022-10-17T09:27:11.259Z,1119
2022-10-17T09:28:11.258Z,1135
2022-10-17T09:29:11.274Z,1135
2022-10-17T09:30:21.277Z,1120
2022-10-17T09:31:11.271Z,1117
2022-10-17T09:32:11.254Z,1117
2022-10-17T09:33:23.055Z,1132
2022-10-17T09:34:11.254Z,1132
2022-10-17T09:35:11.248Z,1137
2022-10-17T09:36:11.312Z,1165
2022-10-17T09:37:11.248Z,1127
2022-10-17T09:38:11.268Z,1123
2022-10-17T09:39:11.247Z,1135
2022-10-17T09:40:11.259Z,1139
2022-10-17T09:41:32.104Z,1147
2022-10-17T09:42:11.238Z,1139
2022-10-17T09:43:11.257Z,1144
2022-10-17T09:44:11.255Z,1152
2022-10-17T09:45:11.241Z,1146
2022-10-17T09:46:11.239Z,1138
2022-10-17T09:47:11.237Z,1148
2022-10-17T09:48:11.250Z,1151
2022-10-17T09:49:13.494Z,1161
2022-10-17T09:50:11.237Z,1157
2022-10-17T09:51:21.780Z,1156
2022-10-17T09:52:11.252Z,1161
2022-10-17T09:53:11.231Z,1153
2022-10-17T09:54:11.222Z,1157
2022-10-17T09:55:11.226Z,1163
2022-10-17T09:56:11.246Z,1180
2022-10-17T09:57:11.217Z,1193
2022-10-17T09:58:11.223Z,1214
2022-10-17T09:59:13.796Z,1235
2022-10-17T10:00:11.280Z,1257
2022-10-17T10:01:11.321Z,1263
2022-10-17T10:02:11.233Z,1236
2022-10-17T10:03:11.253Z,1218
2022-10-17T10:04:11.211Z,1235
2022-10-17T10:05:11.217Z,1233
2022-10-17T10:06:11.218Z,1232
2022-10-17T10:07:11.222Z,1267
2022-10-17T10:08:11.263Z,1260
2022-10-17T10:09:11.267Z,1455
2022-10-17T10:10:11.211Z,1283
2022-10-17T10:11:13.861Z,1279
2022-10-17T10:12:11.202Z,1275
2022-10-17T10:13:11.205Z,1269
2022-10-17T10:14:11.203Z,1343
2022-10-17T10:15:11.224Z,1296
2022-10-17T10:16:11.237Z,1381
2022-10-17T10:17:11.230Z,1289
2022-10-17T10:18:11.211Z,1288
2022-10-17T10:19:11.205Z,1286
2022-10-17T10:20:11.196Z,1300
2022-10-17T10:21:11.202Z,1300
2022-10-17T10:22:11.233Z,1260
2022-10-17T10:23:11.197Z,1278
2022-10-17T10:24:11.219Z,1298
2022-10-17T10:25:11.201Z,1286
2022-10-17T10:26:12.433Z,1288
2022-10-17T10:27:11.251Z,1269
2022-10-17T10:28:11.198Z,1274
2022-10-17T10:29:11.356Z,1281
2022-10-17T10:30:11.188Z,1272
2022-10-17T10:31:11.179Z,1273
2022-10-17T10:32:11.205Z,1277
2022-10-17T10:33:11.193Z,1275
2022-10-17T10:34:11.187Z,1292
2022-10-17T10:35:11.230Z,1293
2022-10-17T10:36:11.176Z,1305
2022-10-17T10:37:13.465Z,1289
2022-10-17T10:38:11.171Z,1284
2022-10-17T10:39:11.212Z,1288
2022-10-17T10:40:11.221Z,1276
2022-10-17T10:41:11.195Z,1315
2022-10-17T10:42:11.180Z,1328
2022-10-17T10:43:11.182Z,1301
2022-10-17T10:44:11.171Z,1270
2022-10-17T10:45:19.106Z,1276
2022-10-17T10:46:11.164Z,1260
2022-10-17T10:47:11.167Z,1275
2022-10-17T10:48:11.192Z,1289
2022-10-17T10:49:11.172Z,1272
2022-10-17T10:50:11.181Z,1276
2022-10-17T10:51:11.176Z,1285
2022-10-17T10:52:11.162Z,1268
2022-10-17T10:53:11.174Z,1267
2022-10-17T10:54:11.186Z,1261
2022-10-17T10:55:11.154Z,1304
2022-10-17T10:56:11.187Z,1301
2022-10-17T10:57:11.151Z,1302
2022-10-17T10:58:11.172Z,1291
2022-10-17T10:59:11.162Z,1265
2022-10-17T11:00:11.144Z,1291
2022-10-17T11:01:11.249Z,1289
2022-10-17T11:02:11.150Z,1286
2022-10-17T11:03:12.807Z,1253
2022-10-17T11:04:11.170Z,1270
2022-10-17T11:05:11.160Z,1258
2022-10-17T11:06:11.149Z,1243
2022-10-17T11:07:11.151Z,1234
2022-10-17T11:08:11.167Z,1210
2022-10-17T11:09:11.151Z,1228
2022-10-17T11:10:11.138Z,1236
2022-10-17T11:11:11.149Z,1236
2022-10-17T11:12:11.164Z,1234
2022-10-17T11:13:11.135Z,1255
2022-10-17T11:14:13.121Z,1321
2022-10-17T11:15:11.131Z,1299
2022-10-17T11:16:11.162Z,1317
2022-10-17T11:17:11.155Z,1301
2022-10-17T11:18:11.124Z,1321
2022-10-17T11:19:11.132Z,1284
2022-10-17T11:20:11.134Z,1267
2022-10-17T11:21:11.185Z,1264
2022-10-17T11:22:11.125Z,1298
2022-10-17T11:23:11.121Z,1337
2022-10-17T11:24:11.151Z,1366
2022-10-17T11:25:11.133Z,1371
2022-10-17T11:26:11.124Z,1326
2022-10-17T11:27:11.138Z,1344
2022-10-17T11:28:11.160Z,1334
2022-10-17T11:29:11.198Z,1291
2022-10-17T11:30:11.145Z,1273
2022-10-17T11:31:11.118Z,1298
2022-10-17T11:32:11.133Z,1294
2022-10-17T11:33:11.140Z,1257
2022-10-17T11:34:11.112Z,1310
2022-10-17T11:35:11.111Z,1320
2022-10-17T11:36:11.113Z,1342
2022-10-17T11:37:11.139Z,1314
2022-10-17T11:38:11.121Z,1291
2022-10-17T11:39:11.107Z,1279
2022-10-17T11:40:11.123Z,1353
2022-10-17T11:41:11.127Z,1294
2022-10-17T11:42:11.096Z,1309
2022-10-17T11:43:11.115Z,1282
2022-10-17T11:44:11.122Z,1314
2022-10-17T11:45:11.100Z,1297
2022-10-17T11:46:11.110Z,1281
2022-10-17T11:47:11.102Z,1288
2022-10-17T11:48:11.095Z,1286
2022-10-17T11:49:12.386Z,1300
2022-10-17T11:52:11.125Z,1216
2022-10-17T11:53:11.090Z,1239
2022-10-17T11:54:11.104Z,1259
2022-10-17T11:55:11.090Z,1266
2022-10-17T11:56:11.108Z,1272
2022-10-17T11:57:14.073Z,1259
2022-10-17T11:58:11.094Z,1252
2022-10-17T11:59:11.112Z,1275
2022-10-17T12:00:11.108Z,1237
2022-10-17T12:01:11.095Z,1240
2022-10-17T12:02:11.074Z,1248
2022-10-17T12:03:11.077Z,1216
2022-10-17T12:04:11.170Z,1247
2022-10-17T12:05:11.078Z,1273
2022-10-17T12:06:11.083Z,1282
2022-10-17T12:07:11.074Z,1246
2022-10-17T12:08:11.074Z,1230
2022-10-17T12:09:11.109Z,1230
2022-10-17T12:10:11.073Z,1215
2022-10-17T12:11:11.076Z,1224
2022-10-17T12:12:11.088Z,1244
2022-10-17T12:13:11.073Z,1246
2022-10-17T12:14:11.070Z,1266
2022-10-17T12:15:11.080Z,1262
2022-10-17T12:16:15.827Z,1256
2022-10-17T12:17:11.064Z,1279
2022-10-17T12:18:11.055Z,1278
2022-10-17T12:19:11.080Z,1296
2022-10-17T12:20:11.065Z,1278
2022-10-17T12:21:11.060Z,1255
2022-10-17T12:22:11.062Z,1199
2022-10-17T12:23:11.051Z,1240
2022-10-17T12:24:13.465Z,1243
2022-10-17T12:25:11.084Z,1279
2022-10-17T12:26:11.048Z,1267
2022-10-17T12:27:11.045Z,1264
2022-10-17T12:28:11.049Z,1236
2022-10-17T12:29:11.054Z,1208
2022-10-17T12:30:11.059Z,1208
2022-10-17T12:31:11.064Z,1212
2022-10-17T12:32:11.074Z,1227
2022-10-17T12:33:11.041Z,1234
2022-10-17T12:34:11.054Z,1261
2022-10-17T12:35:11.068Z,1245
2022-10-17T12:36:11.052Z,1245
2022-10-17T12:37:11.035Z,1218
2022-10-17T12:38:11.084Z,1260
2022-10-17T12:39:11.048Z,1246
2022-10-17T12:40:11.053Z,1262
2022-10-17T12:41:11.544Z,1232
2022-10-17T12:42:11.031Z,1235
2022-10-17T12:43:11.031Z,1217
2022-10-17T12:44:11.031Z,1224
2022-10-17T12:45:11.027Z,1242
2022-10-17T12:46:11.044Z,1230
2022-10-17T12:47:11.053Z,1186
2022-10-17T12:48:11.080Z,1223
2022-10-17T12:49:11.025Z,1264
2022-10-17T12:50:11.026Z,1265
2022-10-17T12:52:11.027Z,1297
2022-10-17T12:53:14.343Z,1296
2022-10-17T12:54:11.022Z,1250
2022-10-17T12:55:12.795Z,1251
2022-10-17T12:56:11.061Z,1315
2022-10-17T12:57:11.061Z,1343
2022-10-17T12:58:11.029Z,1338
2022-10-17T12:59:11.006Z,1370
2022-10-17T13:00:11.023Z,1392
2022-10-17T13:01:23.919Z,1375
2022-10-17T13:02:11.018Z,1395
2022-10-17T13:03:11.078Z,1387
2022-10-17T13:04:11.036Z,1355
2022-10-17T13:05:11.022Z,1341
2022-10-17T13:06:11.009Z,1354
2022-10-17T13:07:11.001Z,1424
2022-10-17T13:08:11.021Z,1424
2022-10-17T13:09:10.998Z,1435
2022-10-17T13:10:14.723Z,1438
2022-10-17T13:11:11.016Z,1419
2022-10-17T13:12:11.061Z,1411
2022-10-17T13:13:11.000Z,1412
2022-10-17T13:14:11.021Z,1417
2022-10-17T13:15:10.996Z,1428
2022-10-17T13:16:11.022Z,1457
2022-10-17T13:17:10.992Z,1444
2022-10-17T13:18:11.010Z,1469
2022-10-17T13:19:11.012Z,1437
2022-10-17T13:20:11.018Z,1460
2022-10-17T13:21:10.982Z,1414
2022-10-17T13:22:10.990Z,1444
2022-10-17T13:23:10.984Z,1469
2022-10-17T13:24:11.002Z,1436
2022-10-17T13:25:10.983Z,1558
2022-10-17T13:26:10.995Z,1480
2022-10-17T13:27:10.980Z,1500
2022-10-17T13:28:10.978Z,1508
2022-10-17T13:29:10.998Z,1396
2022-10-17T13:30:10.974Z,1461